sensor_id;sensor_type;location;lat;lon;timestamp;temperature;humidity
16999;DHT22;10211;49.476;11.010;2023-02-26T00:02:26;-1.20;99.90
16999;DHT22;10211;49.476;11.010;2023-02-26T00:04:52;-1.30;99.90
16999;DHT22;10211;49.476;11.010;2023-02-26T00:07:19;-1.30;99.90
16999;DHT22;10211;49.476;11.010;2023-02-26T00:09:46;-1.30;99.90
16999;DHT22;10211;49.476;11.010;2023-02-26T00:12:14;-1.40;99.90
16999;DHT22;10211;49.476;11.010;2023-02-26T00:14:41;-1.40;99.90
16999;DHT22;10211;49.476;11.010;2023-02-26T00:17:24;-1.50;99.90
16999;DHT22;10211;49.476;11.010;2023-02-26T00:19:52;-1.50;99.90
16999;DHT22;10211;49.476;11.010;2023-02-26T00:22:20;-1.60;99.90
16999;DHT22;10211;49.476;11.010;2023-02-26T00:24:47;-1.60;99.90
16999;DHT22;10211;49.476;11.010;2023-02-26T00:27:14;-1.60;99.90
16999;DHT22;10211;49.476;11.010;2023-02-26T00:29:41;-1.70;99.90
16999;DHT22;10211;49.476;11.010;2023-02-26T00:32:09;-1.60;99.90
16999;DHT22;10211;49.476;11.010;2023-02-26T00:34:38;-1.70;99.90
16999;DHT22;10211;49.476;11.010;2023-02-26T00:37:14;-1.70;99.90
16999;DHT22;10211;49.476;11.010;2023-02-26T00:39:49;-1.80;99.90
16999;DHT22;10211;49.476;11.010;2023-02-26T00:42:17;-1.70;99.90
16999;DHT22;10211;49.476;11.010;2023-02-26T00:44:44;-1.70;99.90
16999;DHT22;10211;49.476;11.010;2023-02-26T00:47:16;-1.70;99.90
16999;DHT22;10211;49.476;11.010;2023-02-26T00:49:58;-1.70;99.90
16999;DHT22;10211;49.476;11.010;2023-02-26T00:52:31;-1.70;99.90
16999;DHT22;10211;49.476;11.010;2023-02-26T00:55:01;-1.70;99.90
16999;DHT22;10211;49.476;11.010;2023-02-26T00:57:28;-1.70;99.90
16999;DHT22;10211;49.476;11.010;2023-02-26T00:59:55;-1.70;99.90
16999;DHT22;10211;49.476;11.010;2023-02-26T01:02:22;-1.80;99.90
16999;DHT22;10211;49.476;11.010;2023-02-26T01:04:51;-1.90;99.90
16999;DHT22;10211;49.476;11.010;2023-02-26T01:07:21;-1.90;99.90
16999;DHT22;10211;49.476;11.010;2023-02-26T01:09:49;-2.00;99.90
16999;DHT22;10211;49.476;11.010;2023-02-26T01:12:16;-2.00;99.90
16999;DHT22;10211;49.476;11.010;2023-02-26T01:14:43;-2.10;99.90
16999;DHT22;10211;49.476;11.010;2023-02-26T01:17:15;-2.10;99.90
16999;DHT22;10211;49.476;11.010;2023-02-26T01:19:50;-2.00;99.90
16999;DHT22;10211;49.476;11.010;2023-02-26T01:22:21;-2.20;99.90
16999;DHT22;10211;49.476;11.010;2023-02-26T01:24:53;-2.20;99.90
16999;DHT22;10211;49.476;11.010;2023-02-26T01:27:20;-2.20;99.90
16999;DHT22;10211;49.476;11.010;2023-02-26T01:29:47;-2.30;99.90
16999;DHT22;10211;49.476;11.010;2023-02-26T01:32:17;-2.30;99.90
16999;DHT22;10211;49.476;11.010;2023-02-26T01:34:47;-2.40;99.90
16999;DHT22;10211;49.476;11.010;2023-02-26T01:37:26;-2.40;99.90
16999;DHT22;10211;49.476;11.010;2023-02-26T01:40:09;-2.50;99.90
16999;DHT22;10211;49.476;11.010;2023-02-26T01:42:43;-2.50;99.90
16999;DHT22;10211;49.476;11.010;2023-02-26T01:45:14;-2.60;99.90
16999;DHT22;10211;49.476;11.010;2023-02-26T01:47:47;-2.70;99.90
16999;DHT22;10211;49.476;11.010;2023-02-26T01:50:19;-2.70;99.90
16999;DHT22;10211;49.476;11.010;2023-02-26T01:53:16;-2.70;99.90
16999;DHT22;10211;49.476;11.010;2023-02-26T01:55:44;-2.80;99.90
16999;DHT22;10211;49.476;11.010;2023-02-26T01:58:13;-2.80;99.90
16999;DHT22;10211;49.476;11.010;2023-02-26T02:00:42;-2.80;99.90
16999;DHT22;10211;49.476;11.010;2023-02-26T02:03:09;-2.90;99.90
16999;DHT22;10211;49.476;11.010;2023-02-26T02:05:41;-2.90;99.90
16999;DHT22;10211;49.476;11.010;2023-02-26T02:08:09;-2.90;99.90
16999;DHT22;10211;49.476;11.010;2023-02-26T02:10:41;-2.90;99.90
16999;DHT22;10211;49.476;11.010;2023-02-26T02:13:18;-2.90;99.90
16999;DHT22;10211;49.476;11.010;2023-02-26T02:15:52;-2.90;99.90
16999;DHT22;10211;49.476;11.010;2023-02-26T02:18:23;-3.00;99.90
16999;DHT22;10211;49.476;11.010;2023-02-26T02:21:11;-3.00;99.90
16999;DHT22;10211;49.476;11.010;2023-02-26T02:23:44;-3.00;99.90
16999;DHT22;10211;49.476;11.010;2023-02-26T02:26:35;-3.10;99.90
16999;DHT22;10211;49.476;11.010;2023-02-26T02:32:11;-3.10;99.90
16999;DHT22;10211;49.476;11.010;2023-02-26T02:34:51;-3.10;99.90
16999;DHT22;10211;49.476;11.010;2023-02-26T02:37:23;-3.10;99.90
16999;DHT22;10211;49.476;11.010;2023-02-26T02:39:55;-3.10;99.90
16999;DHT22;10211;49.476;11.010;2023-02-26T02:42:27;-3.10;99.90
16999;DHT22;10211;49.476;11.010;2023-02-26T02:44:58;-3.10;99.90
16999;DHT22;10211;49.476;11.010;2023-02-26T02:47:29;-3.00;99.90
16999;DHT22;10211;49.476;11.010;2023-02-26T02:50:04;-2.90;99.90
16999;DHT22;10211;49.476;11.010;2023-02-26T02:52:36;-2.90;99.90
16999;DHT22;10211;49.476;11.010;2023-02-26T02:55:07;-2.90;99.90
16999;DHT22;10211;49.476;11.010;2023-02-26T02:57:39;-2.90;99.90
16999;DHT22;10211;49.476;11.010;2023-02-26T03:00:11;-2.90;99.90
16999;DHT22;10211;49.476;11.010;2023-02-26T03:02:44;-2.90;99.90
16999;DHT22;10211;49.476;11.010;2023-02-26T03:05:13;-2.90;99.90
16999;DHT22;10211;49.476;11.010;2023-02-26T03:07:46;-3.00;99.90
16999;DHT22;10211;49.476;11.010;2023-02-26T03:10:13;-2.90;99.90
16999;DHT22;10211;49.476;11.010;2023-02-26T03:12:40;-2.90;99.90
16999;DHT22;10211;49.476;11.010;2023-02-26T03:15:07;-2.90;99.90
16999;DHT22;10211;49.476;11.010;2023-02-26T03:17:42;-3.00;99.90
16999;DHT22;10211;49.476;11.010;2023-02-26T03:20:19;-3.00;99.90
16999;DHT22;10211;49.476;11.010;2023-02-26T03:22:56;-3.10;99.90
16999;DHT22;10211;49.476;11.010;2023-02-26T03:25:29;-3.10;99.90
16999;DHT22;10211;49.476;11.010;2023-02-26T03:28:05;-3.20;99.90
16999;DHT22;10211;49.476;11.010;2023-02-26T03:30:37;-3.30;99.90
16999;DHT22;10211;49.476;11.010;2023-02-26T03:33:08;-3.40;99.90
16999;DHT22;10211;49.476;11.010;2023-02-26T03:35:45;-3.50;99.90
16999;DHT22;10211;49.476;11.010;2023-02-26T03:38:23;-3.50;99.90
16999;DHT22;10211;49.476;11.010;2023-02-26T03:40:55;-3.60;99.90
16999;DHT22;10211;49.476;11.010;2023-02-26T03:43:29;-3.60;99.90
16999;DHT22;10211;49.476;11.010;2023-02-26T03:45:59;-3.60;99.90
16999;DHT22;10211;49.476;11.010;2023-02-26T03:48:29;-3.70;99.90
16999;DHT22;10211;49.476;11.010;2023-02-26T03:51:00;-3.70;99.90
16999;DHT22;10211;49.476;11.010;2023-02-26T03:53:32;-3.70;99.90
16999;DHT22;10211;49.476;11.010;2023-02-26T03:56:02;-3.70;99.90
16999;DHT22;10211;49.476;11.010;2023-02-26T03:58:31;-3.70;99.90
16999;DHT22;10211;49.476;11.010;2023-02-26T04:01:01;-3.70;99.90
16999;DHT22;10211;49.476;11.010;2023-02-26T04:03:32;-3.60;99.90
16999;DHT22;10211;49.476;11.010;2023-02-26T04:06:03;-3.60;99.90
16999;DHT22;10211;49.476;11.010;2023-02-26T04:08:30;-3.60;99.90
16999;DHT22;10211;49.476;11.010;2023-02-26T04:10:58;-3.50;99.90
16999;DHT22;10211;49.476;11.010;2023-02-26T04:13:27;-3.30;99.90
16999;DHT22;10211;49.476;11.010;2023-02-26T04:15:53;-3.20;99.90
16999;DHT22;10211;49.476;11.010;2023-02-26T04:18:20;-3.00;99.90
16999;DHT22;10211;49.476;11.010;2023-02-26T04:20:47;-2.90;99.90
16999;DHT22;10211;49.476;11.010;2023-02-26T04:23:15;-2.80;99.90
16999;DHT22;10211;49.476;11.010;2023-02-26T04:25:43;-2.70;99.90
16999;DHT22;10211;49.476;11.010;2023-02-26T04:28:10;-2.60;99.90
16999;DHT22;10211;49.476;11.010;2023-02-26T04:30:37;-2.50;99.90
16999;DHT22;10211;49.476;11.010;2023-02-26T04:33:04;-2.50;99.90
16999;DHT22;10211;49.476;11.010;2023-02-26T04:35:30;-2.40;99.90
16999;DHT22;10211;49.476;11.010;2023-02-26T04:37:58;-2.40;99.90
16999;DHT22;10211;49.476;11.010;2023-02-26T04:40:26;-2.30;99.90
16999;DHT22;10211;49.476;11.010;2023-02-26T04:42:52;-2.30;99.90
16999;DHT22;10211;49.476;11.010;2023-02-26T04:45:19;-2.20;99.90
16999;DHT22;10211;49.476;11.010;2023-02-26T04:47:46;-2.20;99.90
16999;DHT22;10211;49.476;11.010;2023-02-26T04:50:13;-2.20;99.90
16999;DHT22;10211;49.476;11.010;2023-02-26T04:52:40;-2.10;99.90
16999;DHT22;10211;49.476;11.010;2023-02-26T04:55:07;-2.10;99.90
16999;DHT22;10211;49.476;11.010;2023-02-26T04:57:35;-2.00;99.90
16999;DHT22;10211;49.476;11.010;2023-02-26T05:00:03;-2.00;99.90
16999;DHT22;10211;49.476;11.010;2023-02-26T05:02:32;-2.00;99.90
16999;DHT22;10211;49.476;11.010;2023-02-26T05:04:59;-1.90;99.90
16999;DHT22;10211;49.476;11.010;2023-02-26T05:07:25;-1.90;99.90
16999;DHT22;10211;49.476;11.010;2023-02-26T05:09:52;-1.90;99.90
16999;DHT22;10211;49.476;11.010;2023-02-26T05:12:19;-1.90;99.90
16999;DHT22;10211;49.476;11.010;2023-02-26T05:14:47;-1.80;99.90
16999;DHT22;10211;49.476;11.010;2023-02-26T05:17:14;-1.80;99.90
16999;DHT22;10211;49.476;11.010;2023-02-26T05:19:40;-1.80;99.90
16999;DHT22;10211;49.476;11.010;2023-02-26T05:22:07;-1.80;99.90
16999;DHT22;10211;49.476;11.010;2023-02-26T05:24:34;-1.80;99.90
16999;DHT22;10211;49.476;11.010;2023-02-26T05:27:01;-1.70;99.90
16999;DHT22;10211;49.476;11.010;2023-02-26T05:29:27;-1.70;99.90
16999;DHT22;10211;49.476;11.010;2023-02-26T05:31:55;-1.70;99.90
16999;DHT22;10211;49.476;11.010;2023-02-26T05:34:22;-1.70;99.90
16999;DHT22;10211;49.476;11.010;2023-02-26T05:36:49;-1.70;99.90
16999;DHT22;10211;49.476;11.010;2023-02-26T05:39:16;-1.70;99.90
16999;DHT22;10211;49.476;11.010;2023-02-26T05:41:43;-1.70;99.90
16999;DHT22;10211;49.476;11.010;2023-02-26T05:44:11;-1.70;99.90
16999;DHT22;10211;49.476;11.010;2023-02-26T05:46:37;-1.70;99.90
16999;DHT22;10211;49.476;11.010;2023-02-26T05:49:05;-1.70;99.90
16999;DHT22;10211;49.476;11.010;2023-02-26T05:51:32;-1.60;99.90
16999;DHT22;10211;49.476;11.010;2023-02-26T05:53:59;-1.70;99.90
16999;DHT22;10211;49.476;11.010;2023-02-26T05:56:25;-1.70;99.90
16999;DHT22;10211;49.476;11.010;2023-02-26T05:58:52;-1.70;99.90
16999;DHT22;10211;49.476;11.010;2023-02-26T06:01:19;-1.70;99.90
16999;DHT22;10211;49.476;11.010;2023-02-26T06:03:46;-1.60;99.90
16999;DHT22;10211;49.476;11.010;2023-02-26T06:06:14;-1.60;99.90
16999;DHT22;10211;49.476;11.010;2023-02-26T06:08:42;-1.60;99.90
16999;DHT22;10211;49.476;11.010;2023-02-26T06:11:09;-1.60;99.90
16999;DHT22;10211;49.476;11.010;2023-02-26T06:13:37;-1.60;99.90
16999;DHT22;10211;49.476;11.010;2023-02-26T06:16:04;-1.60;99.90
16999;DHT22;10211;49.476;11.010;2023-02-26T06:18:33;-1.60;99.90
16999;DHT22;10211;49.476;11.010;2023-02-26T06:21:00;-1.60;99.90
16999;DHT22;10211;49.476;11.010;2023-02-26T06:23:28;-1.60;99.90
16999;DHT22;10211;49.476;11.010;2023-02-26T06:25:55;-1.60;99.90
16999;DHT22;10211;49.476;11.010;2023-02-26T06:28:24;-1.50;99.90
16999;DHT22;10211;49.476;11.010;2023-02-26T06:30:51;-1.50;99.90
16999;DHT22;10211;49.476;11.010;2023-02-26T06:33:18;-1.50;99.90
16999;DHT22;10211;49.476;11.010;2023-02-26T06:35:45;-1.50;99.90
16999;DHT22;10211;49.476;11.010;2023-02-26T06:38:12;-1.50;99.90
16999;DHT22;10211;49.476;11.010;2023-02-26T06:40:40;-1.40;99.90
16999;DHT22;10211;49.476;11.010;2023-02-26T06:43:07;-1.40;99.90
16999;DHT22;10211;49.476;11.010;2023-02-26T06:45:34;-1.40;99.90
16999;DHT22;10211;49.476;11.010;2023-02-26T06:48:01;-1.30;99.90
16999;DHT22;10211;49.476;11.010;2023-02-26T06:50:28;-1.20;99.90
16999;DHT22;10211;49.476;11.010;2023-02-26T06:52:55;-1.20;99.90
16999;DHT22;10211;49.476;11.010;2023-02-26T06:55:24;-1.20;99.90
16999;DHT22;10211;49.476;11.010;2023-02-26T06:57:53;-1.10;99.90
16999;DHT22;10211;49.476;11.010;2023-02-26T07:00:21;-1.00;99.90
16999;DHT22;10211;49.476;11.010;2023-02-26T07:02:51;-1.00;99.90
16999;DHT22;10211;49.476;11.010;2023-02-26T07:05:19;-0.80;99.90
16999;DHT22;10211;49.476;11.010;2023-02-26T07:07:45;-0.70;99.90
16999;DHT22;10211;49.476;11.010;2023-02-26T07:10:12;-0.60;99.90
16999;DHT22;10211;49.476;11.010;2023-02-26T07:12:39;-0.50;99.90
16999;DHT22;10211;49.476;11.010;2023-02-26T07:15:07;-0.40;99.90
16999;DHT22;10211;49.476;11.010;2023-02-26T07:17:34;-0.40;99.90
16999;DHT22;10211;49.476;11.010;2023-02-26T07:20:01;-0.50;99.90
16999;DHT22;10211;49.476;11.010;2023-02-26T07:22:34;-0.30;99.90
16999;DHT22;10211;49.476;11.010;2023-02-26T07:25:01;-0.30;99.90
16999;DHT22;10211;49.476;11.010;2023-02-26T07:27:27;-0.10;99.90
16999;DHT22;10211;49.476;11.010;2023-02-26T07:29:55;0.10;99.90
16999;DHT22;10211;49.476;11.010;2023-02-26T07:32:23;0.40;99.90
16999;DHT22;10211;49.476;11.010;2023-02-26T07:34:50;0.70;99.90
16999;DHT22;10211;49.476;11.010;2023-02-26T07:37:17;1.10;99.90
16999;DHT22;10211;49.476;11.010;2023-02-26T07:39:44;1.30;99.90
16999;DHT22;10211;49.476;11.010;2023-02-26T07:42:11;1.40;99.90
16999;DHT22;10211;49.476;11.010;2023-02-26T07:44:38;1.40;99.90
16999;DHT22;10211;49.476;11.010;2023-02-26T07:47:05;1.50;99.90
16999;DHT22;10211;49.476;11.010;2023-02-26T07:49:33;1.50;99.90
16999;DHT22;10211;49.476;11.010;2023-02-26T07:52:00;1.30;99.90
16999;DHT22;10211;49.476;11.010;2023-02-26T07:54:27;1.30;99.90
16999;DHT22;10211;49.476;11.010;2023-02-26T07:56:54;1.40;99.90
16999;DHT22;10211;49.476;11.010;2023-02-26T07:59:20;1.50;99.90
16999;DHT22;10211;49.476;11.010;2023-02-26T08:01:47;1.80;99.90
16999;DHT22;10211;49.476;11.010;2023-02-26T08:04:14;2.50;99.90
16999;DHT22;10211;49.476;11.010;2023-02-26T08:06:42;3.20;99.90
16999;DHT22;10211;49.476;11.010;2023-02-26T08:09:10;4.00;99.90
16999;DHT22;10211;49.476;11.010;2023-02-26T08:11:37;5.30;99.90
16999;DHT22;10211;49.476;11.010;2023-02-26T08:14:05;6.40;99.90
16999;DHT22;10211;49.476;11.010;2023-02-26T08:16:31;6.80;99.90
16999;DHT22;10211;49.476;11.010;2023-02-26T08:18:58;6.80;99.90
16999;DHT22;10211;49.476;11.010;2023-02-26T08:21:25;6.40;99.90
16999;DHT22;10211;49.476;11.010;2023-02-26T08:23:53;6.00;99.90
16999;DHT22;10211;49.476;11.010;2023-02-26T08:26:20;5.50;99.90
16999;DHT22;10211;49.476;11.010;2023-02-26T08:28:47;4.90;99.90
16999;DHT22;10211;49.476;11.010;2023-02-26T08:31:14;4.50;99.90
16999;DHT22;10211;49.476;11.010;2023-02-26T08:33:42;4.30;99.90
16999;DHT22;10211;49.476;11.010;2023-02-26T08:36:09;4.00;99.90
16999;DHT22;10211;49.476;11.010;2023-02-26T08:38:36;3.70;99.90
16999;DHT22;10211;49.476;11.010;2023-02-26T08:41:05;3.60;99.90
16999;DHT22;10211;49.476;11.010;2023-02-26T08:43:32;3.50;99.90
16999;DHT22;10211;49.476;11.010;2023-02-26T08:45:59;3.40;99.90
16999;DHT22;10211;49.476;11.010;2023-02-26T08:48:26;3.30;99.90
16999;DHT22;10211;49.476;11.010;2023-02-26T08:50:53;3.00;99.90
16999;DHT22;10211;49.476;11.010;2023-02-26T08:53:19;2.90;99.90
16999;DHT22;10211;49.476;11.010;2023-02-26T08:55:47;2.70;99.90
16999;DHT22;10211;49.476;11.010;2023-02-26T08:58:16;2.60;99.90
16999;DHT22;10211;49.476;11.010;2023-02-26T09:00:43;2.60;99.90
16999;DHT22;10211;49.476;11.010;2023-02-26T09:03:10;2.70;99.90
16999;DHT22;10211;49.476;11.010;2023-02-26T09:05:38;2.70;99.90
16999;DHT22;10211;49.476;11.010;2023-02-26T09:08:05;2.80;99.90
16999;DHT22;10211;49.476;11.010;2023-02-26T09:10:32;2.70;99.90
16999;DHT22;10211;49.476;11.010;2023-02-26T09:12:59;2.50;99.90
16999;DHT22;10211;49.476;11.010;2023-02-26T09:15:27;2.40;99.90
16999;DHT22;10211;49.476;11.010;2023-02-26T09:17:54;2.50;99.90
16999;DHT22;10211;49.476;11.010;2023-02-26T09:20:21;2.60;99.90
16999;DHT22;10211;49.476;11.010;2023-02-26T09:22:48;2.30;99.90
16999;DHT22;10211;49.476;11.010;2023-02-26T09:25:14;2.10;99.90
16999;DHT22;10211;49.476;11.010;2023-02-26T09:27:41;2.00;99.90
16999;DHT22;10211;49.476;11.010;2023-02-26T09:30:09;2.10;99.90
16999;DHT22;10211;49.476;11.010;2023-02-26T09:32:38;2.50;99.90
16999;DHT22;10211;49.476;11.010;2023-02-26T09:35:05;3.00;99.90
16999;DHT22;10211;49.476;11.010;2023-02-26T09:37:32;3.40;99.90
16999;DHT22;10211;49.476;11.010;2023-02-26T09:39:59;3.80;99.90
16999;DHT22;10211;49.476;11.010;2023-02-26T09:42:41;4.00;99.90
16999;DHT22;10211;49.476;11.010;2023-02-26T09:45:14;4.50;99.90
16999;DHT22;10211;49.476;11.010;2023-02-26T09:47:47;4.70;99.80
16999;DHT22;10211;49.476;11.010;2023-02-26T09:50:19;4.50;97.90
16999;DHT22;10211;49.476;11.010;2023-02-26T09:52:52;4.20;98.40
16999;DHT22;10211;49.476;11.010;2023-02-26T09:55:26;4.00;98.20
16999;DHT22;10211;49.476;11.010;2023-02-26T09:57:56;3.80;98.20
16999;DHT22;10211;49.476;11.010;2023-02-26T10:00:29;3.60;98.40
16999;DHT22;10211;49.476;11.010;2023-02-26T10:03:04;3.40;99.30
16999;DHT22;10211;49.476;11.010;2023-02-26T10:05:39;3.10;99.30
16999;DHT22;10211;49.476;11.010;2023-02-26T10:08:11;2.90;99.10
16999;DHT22;10211;49.476;11.010;2023-02-26T10:10:47;2.90;98.00
16999;DHT22;10211;49.476;11.010;2023-02-26T10:13:21;3.00;97.10
16999;DHT22;10211;49.476;11.010;2023-02-26T10:15:49;2.90;97.10
16999;DHT22;10211;49.476;11.010;2023-02-26T10:18:22;3.00;97.90
16999;DHT22;10211;49.476;11.010;2023-02-26T10:20:54;3.10;98.10
16999;DHT22;10211;49.476;11.010;2023-02-26T10:23:25;3.10;98.60
16999;DHT22;10211;49.476;11.010;2023-02-26T10:26:01;3.10;98.20
16999;DHT22;10211;49.476;11.010;2023-02-26T10:28:37;3.00;98.40
16999;DHT22;10211;49.476;11.010;2023-02-26T10:31:13;3.00;98.50
16999;DHT22;10211;49.476;11.010;2023-02-26T10:33:49;3.00;98.60
16999;DHT22;10211;49.476;11.010;2023-02-26T10:36:23;3.00;97.30
16999;DHT22;10211;49.476;11.010;2023-02-26T10:38:55;2.90;97.60
16999;DHT22;10211;49.476;11.010;2023-02-26T10:41:25;2.80;97.00
16999;DHT22;10211;49.476;11.010;2023-02-26T10:44:00;2.80;96.80
16999;DHT22;10211;49.476;11.010;2023-02-26T10:46:36;3.00;95.60
16999;DHT22;10211;49.476;11.010;2023-02-26T10:49:45;3.10;95.50
16999;DHT22;10211;49.476;11.010;2023-02-26T10:52:15;3.00;96.20
16999;DHT22;10211;49.476;11.010;2023-02-26T10:54:49;3.20;96.90
16999;DHT22;10211;49.476;11.010;2023-02-26T10:57:23;3.60;97.70
16999;DHT22;10211;49.476;11.010;2023-02-26T10:59:50;4.50;97.50
16999;DHT22;10211;49.476;11.010;2023-02-26T11:02:39;5.60;94.30
16999;DHT22;10211;49.476;11.010;2023-02-26T11:05:15;5.60;91.80
16999;DHT22;10211;49.476;11.010;2023-02-26T11:07:44;5.00;91.60
16999;DHT22;10211;49.476;11.010;2023-02-26T11:10:16;4.40;93.10
16999;DHT22;10211;49.476;11.010;2023-02-26T11:12:43;4.70;92.90
16999;DHT22;10211;49.476;11.010;2023-02-26T11:15:14;5.60;92.50
16999;DHT22;10211;49.476;11.010;2023-02-26T11:17:44;6.10;91.60
16999;DHT22;10211;49.476;11.010;2023-02-26T11:20:17;6.80;90.60
16999;DHT22;10211;49.476;11.010;2023-02-26T11:22:47;7.50;86.40
16999;DHT22;10211;49.476;11.010;2023-02-26T11:25:18;7.00;85.60
16999;DHT22;10211;49.476;11.010;2023-02-26T11:27:48;8.20;84.10
16999;DHT22;10211;49.476;11.010;2023-02-26T11:30:16;10.40;79.90
16999;DHT22;10211;49.476;11.010;2023-02-26T11:32:44;12.00;70.40
16999;DHT22;10211;49.476;11.010;2023-02-26T11:35:14;11.90;67.30
16999;DHT22;10211;49.476;11.010;2023-02-26T11:37:47;11.60;66.20
16999;DHT22;10211;49.476;11.010;2023-02-26T11:40:17;10.90;66.40
16999;DHT22;10211;49.476;11.010;2023-02-26T11:42:48;10.10;66.40
16999;DHT22;10211;49.476;11.010;2023-02-26T11:45:18;11.20;66.60
16999;DHT22;10211;49.476;11.010;2023-02-26T11:47:46;12.50;64.70
16999;DHT22;10211;49.476;11.010;2023-02-26T11:50:18;13.50;60.90
16999;DHT22;10211;49.476;11.010;2023-02-26T11:52:54;14.10;58.90
16999;DHT22;10211;49.476;11.010;2023-02-26T11:55:28;11.50;59.80
16999;DHT22;10211;49.476;11.010;2023-02-26T11:57:55;10.30;62.60
16999;DHT22;10211;49.476;11.010;2023-02-26T12:00:26;9.60;65.40
16999;DHT22;10211;49.476;11.010;2023-02-26T12:02:59;9.80;66.60
16999;DHT22;10211;49.476;11.010;2023-02-26T12:05:29;9.70;64.90
16999;DHT22;10211;49.476;11.010;2023-02-26T12:07:56;9.00;67.00
16999;DHT22;10211;49.476;11.010;2023-02-26T12:10:27;8.60;67.70
16999;DHT22;10211;49.476;11.010;2023-02-26T12:13:07;7.50;69.40
16999;DHT22;10211;49.476;11.010;2023-02-26T12:15:41;6.50;72.00
16999;DHT22;10211;49.476;11.010;2023-02-26T12:18:24;6.00;74.30
16999;DHT22;10211;49.476;11.010;2023-02-26T12:21:01;6.40;74.20
16999;DHT22;10211;49.476;11.010;2023-02-26T12:23:55;6.70;73.60
16999;DHT22;10211;49.476;11.010;2023-02-26T12:26:27;6.90;73.20
16999;DHT22;10211;49.476;11.010;2023-02-26T12:32:06;6.20;72.50
16999;DHT22;10211;49.476;11.010;2023-02-26T12:34:55;6.60;73.20
16999;DHT22;10211;49.476;11.010;2023-02-26T12:37:36;6.50;72.30
16999;DHT22;10211;49.476;11.010;2023-02-26T12:40:21;6.20;73.60
16999;DHT22;10211;49.476;11.010;2023-02-26T12:43:02;5.70;73.60
16999;DHT22;10211;49.476;11.010;2023-02-26T12:45:41;4.80;75.20
16999;DHT22;10211;49.476;11.010;2023-02-26T12:51:11;4.10;77.70
16999;DHT22;10211;49.476;11.010;2023-02-26T12:54:04;4.20;78.00
16999;DHT22;10211;49.476;11.010;2023-02-26T12:56:49;4.50;78.50
16999;DHT22;10211;49.476;11.010;2023-02-26T12:59:33;4.70;77.60
16999;DHT22;10211;49.476;11.010;2023-02-26T13:02:28;4.70;76.60
16999;DHT22;10211;49.476;11.010;2023-02-26T13:05:11;4.50;77.00
16999;DHT22;10211;49.476;11.010;2023-02-26T13:07:50;4.40;77.40
16999;DHT22;10211;49.476;11.010;2023-02-26T13:10:26;4.20;76.70
16999;DHT22;10211;49.476;11.010;2023-02-26T13:13:13;3.90;78.00
16999;DHT22;10211;49.476;11.010;2023-02-26T13:15:58;3.70;79.40
16999;DHT22;10211;49.476;11.010;2023-02-26T13:18:30;3.70;80.00
16999;DHT22;10211;49.476;11.010;2023-02-26T13:21:04;3.80;80.00
16999;DHT22;10211;49.476;11.010;2023-02-26T13:23:35;5.00;77.60
16999;DHT22;10211;49.476;11.010;2023-02-26T13:26:07;6.40;74.40
16999;DHT22;10211;49.476;11.010;2023-02-26T13:28:38;7.50;70.10
16999;DHT22;10211;49.476;11.010;2023-02-26T13:31:08;8.00;67.70
16999;DHT22;10211;49.476;11.010;2023-02-26T13:33:36;7.80;67.80
16999;DHT22;10211;49.476;11.010;2023-02-26T13:36:06;7.80;69.50
16999;DHT22;10211;49.476;11.010;2023-02-26T13:38:41;7.80;68.10
16999;DHT22;10211;49.476;11.010;2023-02-26T13:41:14;6.70;69.20
16999;DHT22;10211;49.476;11.010;2023-02-26T13:44:00;5.60;72.10
16999;DHT22;10211;49.476;11.010;2023-02-26T13:46:41;4.80;74.10
16999;DHT22;10211;49.476;11.010;2023-02-26T13:49:16;4.10;75.90
16999;DHT22;10211;49.476;11.010;2023-02-26T13:51:46;3.60;78.00
16999;DHT22;10211;49.476;11.010;2023-02-26T13:54:34;3.50;78.40
16999;DHT22;10211;49.476;11.010;2023-02-26T13:57:22;4.20;77.60
16999;DHT22;10211;49.476;11.010;2023-02-26T13:59:58;4.90;76.00
16999;DHT22;10211;49.476;11.010;2023-02-26T14:02:51;5.40;74.20
16999;DHT22;10211;49.476;11.010;2023-02-26T14:08:29;5.90;71.90
16999;DHT22;10211;49.476;11.010;2023-02-26T14:11:24;5.60;72.20
16999;DHT22;10211;49.476;11.010;2023-02-26T14:14:10;4.90;73.20
16999;DHT22;10211;49.476;11.010;2023-02-26T14:16:39;4.50;75.30
16999;DHT22;10211;49.476;11.010;2023-02-26T14:19:24;4.60;75.30
16999;DHT22;10211;49.476;11.010;2023-02-26T14:21:52;4.70;74.80
16999;DHT22;10211;49.476;11.010;2023-02-26T14:24:28;5.00;74.60
16999;DHT22;10211;49.476;11.010;2023-02-26T14:27:23;5.10;74.10
16999;DHT22;10211;49.476;11.010;2023-02-26T14:30:12;5.00;74.00
16999;DHT22;10211;49.476;11.010;2023-02-26T14:32:45;4.60;74.20
16999;DHT22;10211;49.476;11.010;2023-02-26T14:35:15;4.10;75.80
16999;DHT22;10211;49.476;11.010;2023-02-26T14:37:45;3.90;75.80
16999;DHT22;10211;49.476;11.010;2023-02-26T14:40:18;3.80;76.20
16999;DHT22;10211;49.476;11.010;2023-02-26T14:42:49;3.70;76.50
16999;DHT22;10211;49.476;11.010;2023-02-26T14:45:26;3.60;76.60
16999;DHT22;10211;49.476;11.010;2023-02-26T14:47:54;3.60;78.20
16999;DHT22;10211;49.476;11.010;2023-02-26T14:50:22;3.60;77.30
16999;DHT22;10211;49.476;11.010;2023-02-26T14:53:04;3.50;78.10
16999;DHT22;10211;49.476;11.010;2023-02-26T14:55:52;3.40;77.90
16999;DHT22;10211;49.476;11.010;2023-02-26T14:58:43;3.30;78.20
16999;DHT22;10211;49.476;11.010;2023-02-26T15:01:21;3.30;78.80
16999;DHT22;10211;49.476;11.010;2023-02-26T15:04:12;3.40;78.80
16999;DHT22;10211;49.476;11.010;2023-02-26T15:06:51;3.40;78.10
16999;DHT22;10211;49.476;11.010;2023-02-26T15:09:24;3.40;78.10
16999;DHT22;10211;49.476;11.010;2023-02-26T15:12:04;3.20;78.40
16999;DHT22;10211;49.476;11.010;2023-02-26T15:14:56;3.00;78.20
16999;DHT22;10211;49.476;11.010;2023-02-26T15:17:46;3.00;79.70
16999;DHT22;10211;49.476;11.010;2023-02-26T15:20:20;2.90;79.50
16999;DHT22;10211;49.476;11.010;2023-02-26T15:25:57;2.70;79.20
16999;DHT22;10211;49.476;11.010;2023-02-26T15:28:26;2.60;79.10
16999;DHT22;10211;49.476;11.010;2023-02-26T15:30:54;2.50;80.30
16999;DHT22;10211;49.476;11.010;2023-02-26T15:33:24;2.40;80.70
16999;DHT22;10211;49.476;11.010;2023-02-26T15:35:53;2.40;80.20
16999;DHT22;10211;49.476;11.010;2023-02-26T15:38:20;2.30;80.20
16999;DHT22;10211;49.476;11.010;2023-02-26T15:40:49;2.20;79.80
16999;DHT22;10211;49.476;11.010;2023-02-26T15:43:22;2.10;80.50
16999;DHT22;10211;49.476;11.010;2023-02-26T15:45:51;2.10;80.10
16999;DHT22;10211;49.476;11.010;2023-02-26T15:48:20;2.00;80.70
16999;DHT22;10211;49.476;11.010;2023-02-26T15:50:53;2.00;80.70
16999;DHT22;10211;49.476;11.010;2023-02-26T15:53:27;2.00;81.10
16999;DHT22;10211;49.476;11.010;2023-02-26T15:55:56;2.00;82.00
16999;DHT22;10211;49.476;11.010;2023-02-26T15:58:32;2.00;81.10
16999;DHT22;10211;49.476;11.010;2023-02-26T16:01:01;2.00;81.90
16999;DHT22;10211;49.476;11.010;2023-02-26T16:03:31;1.90;82.30
16999;DHT22;10211;49.476;11.010;2023-02-26T16:05:59;1.80;82.50